Time;durP1;ratioP1;P1;durP2;ratioP2;P2;SDS_P1;SDS_P2;PMS_P1;PMS_P2;Temp;Humidity;BMP_temperature;BMP_pressure;BME280_temperature;BME280_humidity;BME280_pressure;Samples;Min_cycle;Max_cycle;Signal;HPM_P1;HPM_P2
2023/08/04 00:00:55;;;;;;;14.10;8.73;;;;;;;18.39;100.00;-18522.03;5105903;28;20032;-79
2023/08/04 00:03:22;;;;;;;12.50;8.20;;;;;;;18.41;100.00;-18522.56;5104610;28;20081;-80
2023/08/04 00:05:47;;;;;;;15.10;8.50;;;;;;;18.52;100.00;-18525.44;5102401;28;20036;-79
2023/08/04 00:08:12;;;;;;;15.05;8.43;;;;;;;18.59;100.00;-18527.22;5106687;28;20036;-78
2023/08/04 00:10:38;;;;;;;20.02;9.63;;;;;;;18.52;100.00;-18525.44;5102198;28;20563;-79
2023/08/04 00:13:03;;;;;;;16.92;9.15;;;;;;;18.45;100.00;-18523.53;5104341;28;20510;-77
2023/08/04 00:15:29;;;;;;;16.83;9.27;;;;;;;18.48;100.00;-18524.34;5100263;28;20036;-81
2023/08/04 00:17:55;;;;;;;13.10;8.85;;;;;;;18.44;100.00;-18523.41;5106722;28;20118;-79
2023/08/04 00:20:21;;;;;;;14.13;8.73;;;;;;;18.40;100.00;-18522.31;5105618;28;20368;-79
2023/08/04 00:22:46;;;;;;;10.35;8.20;;;;;;;18.39;100.00;-18521.91;5099107;28;20040;-79
2023/08/04 00:25:11;;;;;;;13.65;9.43;;;;;;;18.35;100.00;-18520.94;5087869;28;20035;-79
2023/08/04 00:27:37;;;;;;;16.48;9.15;;;;;;;18.47;100.00;-18524.22;5083914;28;20048;-78
2023/08/04 00:30:03;;;;;;;19.67;9.32;;;;;;;18.41;100.00;-18522.44;5104671;28;20035;-78
2023/08/04 00:32:28;;;;;;;18.02;8.18;;;;;;;18.35;100.00;-18520.81;5098174;28;20507;-80
2023/08/04 00:34:54;;;;;;;15.20;9.63;;;;;;;18.36;100.00;-18521.06;5104203;28;20550;-78
2023/08/04 00:37:19;;;;;;;18.65;8.80;;;;;;;18.34;100.00;-18520.66;5104200;28;20085;-79
2023/08/04 00:39:44;;;;;;;15.05;8.80;;;;;;;18.35;100.00;-18520.81;5101216;28;20122;-80
2023/08/04 00:42:10;;;;;;;16.25;9.27;;;;;;;18.37;100.00;-18521.34;5103132;28;20139;-79
2023/08/04 00:44:36;;;;;;;12.60;8.40;;;;;;;18.30;100.00;-18519.44;5103330;28;20062;-79
2023/08/04 00:47:02;;;;;;;19.48;9.20;;;;;;;18.36;100.00;-18521.22;5104122;28;20047;-78
2023/08/04 00:49:28;;;;;;;14.00;8.38;;;;;;;18.26;100.00;-18518.47;5085004;28;20039;-78
2023/08/04 00:51:53;;;;;;;12.95;8.25;;;;;;;18.30;100.00;-18519.44;5104434;28;20047;-79
2023/08/04 00:54:19;;;;;;;16.92;9.40;;;;;;;18.34;100.00;-18520.66;5105175;28;20115;-79
2023/08/04 00:56:45;;;;;;;11.38;8.02;;;;;;;18.36;100.00;-18521.06;5101733;28;20089;-79
2023/08/04 00:59:10;;;;;;;16.75;9.77;;;;;;;18.34;100.00;-18520.66;5103405;28;20039;-80
2023/08/04 01:01:37;;;;;;;15.23;8.55;;;;;;;18.30;100.00;-18519.44;5103680;28;20036;-78
2023/08/04 01:04:03;;;;;;;11.32;8.65;;;;;;;18.29;100.00;-18519.16;5085688;28;20043;-79
2023/08/04 01:06:42;;;;;;;16.38;9.55;;;;;;;18.21;100.00;-18517.25;5101571;28;20427;-81
2023/08/04 01:09:21;;;;;;;14.65;8.88;;;;;;;18.14;100.00;-18515.22;5099467;28;20123;-80
2023/08/04 01:12:15;;;;;;;14.57;9.27;;;;;;;18.16;100.00;-18515.91;5104610;28;20131;-78
2023/08/04 01:14:42;;;;;;;15.20;9.18;;;;;;;18.20;100.00;-18516.97;5098581;28;20054;-78
2023/08/04 01:17:28;;;;;;;14.25;8.40;;;;;;;18.16;100.00;-18515.91;5104969;28;20040;-78
2023/08/04 01:19:54;;;;;;;11.82;7.65;;;;;;;18.05;100.00;-18512.91;5085818;28;20039;-79
2023/08/04 01:22:21;;;;;;;13.07;8.35;;;;;;;18.07;100.00;-18513.44;5104741;28;20032;-79
2023/08/04 01:24:46;;;;;;;11.15;8.18;;;;;;;18.04;100.00;-18512.63;5102167;28;20062;-79
2023/08/04 01:27:14;;;;;;;15.98;8.10;;;;;;;18.08;100.00;-18513.56;5105045;28;20410;-79
2023/08/04 01:29:44;;;;;;;16.55;8.55;;;;;;;17.95;100.00;-18510.16;5101161;28;20039;-79
2023/08/04 01:32:10;;;;;;;20.65;9.10;;;;;;;17.91;100.00;-18509.06;5105527;28;20048;-79
2023/08/04 01:34:36;;;;;;;13.18;7.70;;;;;;;17.86;100.00;-18507.84;5103647;28;20032;-79
2023/08/04 01:37:01;;;;;;;13.95;9.05;;;;;;;17.88;100.00;-18508.25;5106173;28;20039;-77
2023/08/04 01:39:27;;;;;;;13.40;7.63;;;;;;;17.76;100.00;-18505.25;5103208;28;20063;-77
2023/08/04 01:41:52;;;;;;;14.73;9.07;;;;;;;17.81;100.00;-18506.47;5103042;28;20054;-79
2023/08/04 01:44:17;;;;;;;12.07;9.00;;;;;;;17.79;100.00;-18506.06;5098531;28;20579;-79
2023/08/04 01:46:43;;;;;;;14.07;9.02;;;;;;;17.92;100.00;-18509.34;5088141;28;20130;-80
2023/08/04 01:49:09;;;;;;;15.00;9.30;;;;;;;17.91;100.00;-18509.22;5085692;28;20093;-78
2023/08/04 01:51:35;;;;;;;15.05;8.48;;;;;;;17.97;100.00;-18510.72;5102561;28;20499;-79
2023/08/04 01:54:00;;;;;;;15.00;8.35;;;;;;;17.97;100.00;-18510.84;5096536;28;20051;-80
2023/08/04 01:56:26;;;;;;;15.05;9.77;;;;;;;18.13;100.00;-18515.06;5102294;28;20047;-78
2023/08/04 01:58:52;;;;;;;19.42;10.23;;;;;;;18.18;100.00;-18516.31;5103394;28;20138;-78
2023/08/04 02:01:17;;;;;;;13.45;10.07;;;;;;;18.13;100.00;-18514.94;5104926;28;20043;-79
2023/08/04 02:03:43;;;;;;;12.10;9.18;;;;;;;18.04;100.00;-18512.63;5103614;28;20032;-79
2023/08/04 02:06:08;;;;;;;15.85;9.73;;;;;;;18.08;100.00;-18513.72;5105218;28;20043;-79
2023/08/04 02:08:33;;;;;;;15.30;10.27;;;;;;;17.96;100.00;-18510.56;5103388;28;20047;-78
2023/08/04 02:10:59;;;;;;;15.75;10.07;;;;;;;17.97;100.00;-18510.84;5104178;28;20439;-78
2023/08/04 02:13:24;;;;;;;15.88;9.70;;;;;;;18.01;100.00;-18511.81;5099133;28;20819;-77
2023/08/04 02:15:50;;;;;;;13.20;8.88;;;;;;;17.93;100.00;-18509.63;5104546;28;20086;-78
2023/08/04 02:18:15;;;;;;;19.00;9.98;;;;;;;17.94;100.00;-18510.03;5103584;28;20044;-78
2023/08/04 02:20:40;;;;;;;18.27;9.18;;;;;;;17.90;100.00;-18508.81;5084117;28;20052;-80
2023/08/04 02:23:06;;;;;;;21.98;11.57;;;;;;;17.94;100.00;-18509.88;5103772;28;20036;-77
2023/08/04 02:25:32;;;;;;;14.60;10.73;;;;;;;18.06;100.00;-18513.16;5103643;28;20051;-79
2023/08/04 02:27:57;;;;;;;16.08;10.27;;;;;;;18.07;100.00;-18513.31;5103796;28;20097;-77
2023/08/04 02:30:22;;;;;;;20.70;11.25;;;;;;;18.09;100.00;-18513.97;5089762;28;20043;-79
2023/08/04 02:32:48;;;;;;;18.15;10.02;;;;;;;18.07;100.00;-18513.44;5103839;28;20055;-77
2023/08/04 02:35:13;;;;;;;17.60;10.50;;;;;;;17.96;100.00;-18510.44;5102620;28;20073;-79
2023/08/04 02:37:38;;;;;;;18.63;9.93;;;;;;;17.96;100.00;-18510.44;5106685;28;20434;-78
2023/08/04 02:40:04;;;;;;;19.58;11.60;;;;;;;18.08;100.00;-18513.56;5104520;28;20039;-79
2023/08/04 02:42:30;;;;;;;21.38;11.93;;;;;;;18.02;100.00;-18512.06;5106332;28;20051;-78
2023/08/04 02:44:55;;;;;;;17.50;10.77;;;;;;;17.90;100.00;-18508.81;5107497;28;20554;-79
2023/08/04 02:47:21;;;;;;;19.65;10.82;;;;;;;17.89;100.00;-18508.53;5091314;28;20395;-81
2023/08/04 02:49:46;;;;;;;21.00;9.98;;;;;;;17.73;100.00;-18504.28;5104138;28;21435;-79
2023/08/04 02:52:18;;;;;;;20.65;11.95;;;;;;;17.85;100.00;-18507.44;5109125;27;20071;-79
2023/08/04 02:54:43;;;;;;;19.60;10.40;;;;;;;17.83;100.00;-18506.88;5088642;28;20108;-79
2023/08/04 02:57:09;;;;;;;18.30;11.40;;;;;;;17.90;100.00;-18508.81;5110238;28;20069;-78
2023/08/04 02:59:34;;;;;;;20.13;9.82;;;;;;;17.91;100.00;-18509.22;5104612;28;20127;-79
2023/08/04 03:01:59;;;;;;;15.45;11.40;;;;;;;17.88;100.00;-18508.38;5106676;28;20035;-78
2023/08/04 03:04:25;;;;;;;19.45;10.77;;;;;;;17.74;100.00;-18504.69;5106521;28;20063;-79
2023/08/04 03:06:50;;;;;;;21.48;11.50;;;;;;;17.78;100.00;-18505.81;5105887;28;20075;-79
2023/08/04 03:09:16;;;;;;;19.95;11.77;;;;;;;17.74;100.00;-18504.69;5106156;28;20086;-77
2023/08/04 03:11:42;;;;;;;16.92;10.60;;;;;;;17.67;100.00;-18502.78;5105886;28;20080;-78
2023/08/04 03:14:08;;;;;;;20.17;11.30;;;;;;;17.74;100.00;-18504.69;5108503;28;20105;-77
2023/08/04 03:16:33;;;;;;;16.55;10.10;;;;;;;17.65;100.00;-18502.09;5088612;28;20036;-79
2023/08/04 03:18:58;;;;;;;21.77;11.23;;;;;;;17.65;100.00;-18502.25;5108988;28;20043;-78
2023/08/04 03:21:24;;;;;;;18.77;12.52;;;;;;;17.70;100.00;-18503.63;5106441;28;20051;-77
2023/08/04 03:23:49;;;;;;;18.95;11.50;;;;;;;17.65;100.00;-18502.25;5108742;28;20039;-77
2023/08/04 03:26:14;;;;;;;17.35;11.35;;;;;;;17.66;100.00;-18502.38;5112096;28;20043;-76
2023/08/04 03:28:40;;;;;;;18.90;11.35;;;;;;;17.71;100.00;-18503.75;5108803;28;20123;-76
2023/08/04 03:31:05;;;;;;;18.10;12.80;;;;;;;17.81;100.00;-18506.63;5109491;28;20035;-78
2023/08/04 03:33:31;;;;;;;19.70;11.63;;;;;;;17.65;100.00;-18502.25;5091632;28;20046;-79
2023/08/04 03:35:56;;;;;;;18.58;13.10;;;;;;;17.68;100.00;-18502.94;5111250;28;20043;-78
2023/08/04 03:38:22;;;;;;;29.92;13.38;;;;;;;17.67;100.00;-18502.66;5109527;28;20046;-77
2023/08/04 03:40:47;;;;;;;21.38;12.50;;;;;;;17.56;100.00;-18499.78;5109048;28;20105;-78
2023/08/04 03:43:13;;;;;;;14.88;11.73;;;;;;;17.54;100.00;-18499.38;5109540;28;20036;-77
2023/08/04 03:45:38;;;;;;;20.83;13.02;;;;;;;17.60;100.00;-18500.88;5106102;28;20055;-78
2023/08/04 03:48:04;;;;;;;23.42;14.57;;;;;;;17.65;100.00;-18502.25;5109931;28;20082;-77
2023/08/04 03:50:30;;;;;;;24.23;13.85;;;;;;;17.51;100.00;-18498.44;5107356;28;20096;-77
2023/08/04 03:52:55;;;;;;;25.40;13.85;;;;;;;17.51;100.00;-18498.44;5102855;28;20043;-77
2023/08/04 03:55:21;;;;;;;23.20;13.00;;;;;;;17.55;100.00;-18499.66;5103022;28;20044;-77
2023/08/04 03:57:46;;;;;;;22.63;12.75;;;;;;;17.53;100.00;-18499.09;5107265;28;20051;-79
2023/08/04 04:00:11;;;;;;;23.33;13.38;;;;;;;17.45;100.00;-18496.78;5104454;28;20060;-78
2023/08/04 04:02:37;;;;;;;24.75;13.68;;;;;;;17.52;100.00;-18498.69;5107716;28;20063;-77
2023/08/04 04:05:02;;;;;;;24.58;13.25;;;;;;;17.40;100.00;-18495.41;5106168;28;20073;-79
2023/08/04 04:07:28;;;;;;;25.40;14.02;;;;;;;17.42;100.00;-18495.97;5107219;28;20046;-77
2023/08/04 04:09:53;;;;;;;23.80;14.00;;;;;;;17.41;100.00;-18495.84;5107826;28;20052;-77
2023/08/04 04:12:18;;;;;;;25.58;12.75;;;;;;;17.36;100.00;-18494.47;5106803;28;20044;-79
2023/08/04 04:14:44;;;;;;;26.35;13.80;;;;;;;17.44;100.00;-18496.66;5104136;28;20067;-76
2023/08/04 04:17:09;;;;;;;28.45;14.25;;;;;;;17.47;100.00;-18497.34;5087249;28;20044;-78
2023/08/04 04:19:34;;;;;;;24.45;13.95;;;;;;;17.56;100.00;-18499.94;5103057;28;20063;-75
2023/08/04 04:22:00;;;;;;;30.08;15.27;;;;;;;17.59;100.00;-18500.59;5104454;28;20056;-77
2023/08/04 04:24:25;;;;;;;26.25;12.90;;;;;;;17.57;100.00;-18500.06;5106707;28;20035;-77
2023/08/04 04:26:51;;;;;;;23.77;13.25;;;;;;;17.54;100.00;-18499.38;5106130;28;20507;-79
2023/08/04 04:29:16;;;;;;;24.63;13.07;;;;;;;17.57;100.00;-18500.19;5105839;28;20043;-76
2023/08/04 04:31:41;;;;;;;23.38;13.48;;;;;;;17.63;100.00;-18501.56;5106540;28;20128;-78
2023/08/04 04:34:07;;;;;;;24.58;13.13;;;;;;;17.56;100.00;-18499.78;5104994;28;20582;-79
2023/08/04 04:36:32;;;;;;;21.83;13.20;;;;;;;17.60;100.00;-18500.88;5103975;28;20046;-77
2023/08/04 04:38:58;;;;;;;21.83;14.20;;;;;;;17.71;100.00;-18503.75;5105865;28;20044;-78
2023/08/04 04:41:23;;;;;;;32.25;15.98;;;;;;;17.65;100.00;-18502.25;5106136;28;20032;-78
2023/08/04 04:43:49;;;;;;;22.77;12.27;;;;;;;17.74;100.00;-18504.69;5101803;28;20132;-77
2023/08/04 04:46:14;;;;;;;24.60;13.65;;;;;;;17.77;100.00;-18505.53;5104799;28;20040;-77
2023/08/04 04:48:41;;;;;;;24.90;14.68;;;;;;;17.88;100.00;-18508.25;5103640;28;20039;-77
2023/08/04 04:51:07;;;;;;;22.45;13.13;;;;;;;17.73;100.00;-18504.44;5105434;28;20043;-77
2023/08/04 04:53:32;;;;;;;29.85;14.45;;;;;;;17.84;100.00;-18507.16;5094915;28;20043;-79
2023/08/04 04:55:57;;;;;;;22.63;12.57;;;;;;;17.85;100.00;-18507.44;5105796;28;20746;-79
2023/08/04 04:58:23;;;;;;;25.45;13.65;;;;;;;17.84;100.00;-18507.31;5104782;28;20043;-76
2023/08/04 05:00:49;;;;;;;20.60;13.30;;;;;;;17.81;100.00;-18506.63;5100237;28;20047;-77
2023/08/04 05:03:14;;;;;;;27.50;13.88;;;;;;;17.88;100.00;-18508.38;5087678;28;20067;-77
2023/08/04 05:05:41;;;;;;;20.77;12.90;;;;;;;17.86;100.00;-18507.84;5103354;28;20035;-78
2023/08/04 05:08:07;;;;;;;22.98;13.30;;;;;;;17.91;100.00;-18509.06;5105063;28;20043;-78
2023/08/04 05:10:32;;;;;;;24.55;13.77;;;;;;;17.93;100.00;-18509.75;5104023;28;20047;-78
2023/08/04 05:12:57;;;;;;;21.58;13.25;;;;;;;17.98;100.00;-18510.97;5103250;28;20072;-76
2023/08/04 05:15:23;;;;;;;22.10;13.27;;;;;;;17.96;100.00;-18510.56;5105343;28;20035;-76
2023/08/04 05:17:48;;;;;;;24.73;13.23;;;;;;;18.06;100.00;-18513.16;5106010;28;20048;-78
2023/08/04 05:20:14;;;;;;;19.40;13.68;;;;;;;18.00;100.00;-18511.66;5103992;28;20044;-77
2023/08/04 05:22:40;;;;;;;22.65;12.75;;;;;;;17.89;100.00;-18508.66;5102397;28;20081;-78
2023/08/04 05:25:06;;;;;;;23.48;14.60;;;;;;;18.01;100.00;-18511.94;5102889;28;20514;-75
2023/08/04 05:27:32;;;;;;;20.35;12.88;;;;;;;17.96;100.00;-18510.44;5103747;28;20040;-77
2023/08/04 05:29:57;;;;;;;24.90;14.55;;;;;;;18.06;100.00;-18513.16;5101991;28;20860;-77
2023/08/04 05:32:22;;;;;;;22.77;14.25;;;;;;;18.06;100.00;-18513.16;5101517;28;20117;-77
2023/08/04 05:34:48;;;;;;;21.67;12.52;;;;;;;18.08;100.00;-18513.72;5101025;28;20071;-78
2023/08/04 05:37:13;;;;;;;19.05;11.95;;;;;;;18.15;100.00;-18515.47;5098895;28;20434;-77
2023/08/04 05:39:38;;;;;;;21.05;13.68;;;;;;;18.17;100.00;-18516.16;5104597;28;20066;-78
2023/08/04 05:42:04;;;;;;;19.80;13.48;;;;;;;18.27;100.00;-18518.91;5087287;28;20189;-79
2023/08/04 05:44:29;;;;;;;23.20;13.95;;;;;;;18.21;100.00;-18517.13;5101426;28;20036;-77
2023/08/04 05:46:55;;;;;;;20.25;13.65;;;;;;;18.32;100.00;-18519.97;5102099;28;20066;-77
2023/08/04 05:49:21;;;;;;;21.67;13.43;;;;;;;18.36;100.00;-18521.06;5101710;28;20031;-77
2023/08/04 05:51:46;;;;;;;26.40;13.05;;;;;;;18.36;100.00;-18521.06;5101675;28;20602;-78
2023/08/04 05:54:12;;;;;;;23.58;14.07;;;;;;;18.43;100.00;-18522.97;5085741;28;20047;-76
2023/08/04 05:56:37;;;;;;;25.15;13.40;;;;;;;18.48;100.00;-18524.34;5102892;28;20047;-78
2023/08/04 05:59:03;;;;;;;20.30;13.00;;;;;;;18.48;100.00;-18524.47;5084466;28;20048;-77
2023/08/04 06:01:28;;;;;;;20.30;13.13;;;;;;;18.51;100.00;-18525.03;5103856;28;20043;-77
2023/08/04 06:03:54;;;;;;;16.08;13.05;;;;;;;18.50;100.00;-18524.91;5104770;28;20100;-77
2023/08/04 06:06:20;;;;;;;26.33;14.25;;;;;;;18.55;100.00;-18526.25;5085046;28;20049;-78
2023/08/04 06:08:46;;;;;;;21.35;13.57;;;;;;;18.58;100.00;-18526.94;5100633;28;20141;-77
2023/08/04 06:11:12;;;;;;;20.27;14.30;;;;;;;18.54;100.00;-18525.97;5104822;28;20059;-77
2023/08/04 06:13:38;;;;;;;21.63;14.30;;;;;;;18.54;100.00;-18525.97;5084136;28;20097;-78
2023/08/04 06:16:03;;;;;;;22.83;13.60;;;;;;;18.52;100.00;-18525.44;5104769;28;20044;-78
2023/08/04 06:18:29;;;;;;;21.98;14.15;;;;;;;18.64;100.00;-18528.72;5103469;28;20405;-77
2023/08/04 06:20:54;;;;;;;18.98;13.98;;;;;;;18.60;100.00;-18527.63;5071998;28;20051;-78
2023/08/04 06:23:20;;;;;;;22.08;12.80;;;;;;;18.69;100.00;-18529.94;5066144;28;20094;-78
2023/08/04 06:25:46;;;;;;;18.52;12.70;;;;;;;18.78;100.00;-18532.41;5078003;28;21161;-77
2023/08/04 06:28:11;;;;;;;21.05;14.60;;;;;;;18.86;100.00;-18534.44;5083557;28;20108;-76
2023/08/04 06:30:36;;;;;;;15.55;12.50;;;;;;;18.87;100.00;-18534.84;5081026;28;20126;-77
2023/08/04 06:33:02;;;;;;;20.27;12.32;;;;;;;18.79;100.00;-18532.66;5082350;28;20090;-78
2023/08/04 06:35:27;;;;;;;15.45;10.65;;;;;;;18.72;100.00;-18530.88;5079782;28;20100;-79
2023/08/04 06:37:52;;;;;;;15.93;9.38;;;;;;;18.67;100.00;-18529.38;5064555;28;20047;-75
2023/08/04 06:40:18;;;;;;;15.80;9.50;;;;;;;18.68;100.00;-18529.81;5103527;28;20071;-77
2023/08/04 06:42:43;;;;;;;15.13;11.00;;;;;;;18.80;100.00;-18532.81;5103704;28;20035;-77
2023/08/04 06:45:11;;;;;;;19.73;10.63;;;;;;;18.80;100.00;-18532.94;5090290;28;20039;-78
2023/08/04 06:47:36;;;;;;;18.30;9.00;;;;;;;18.68;100.00;-18529.66;5083970;28;20505;-77
2023/08/04 06:50:03;;;;;;;12.10;9.20;;;;;;;18.77;100.00;-18532.00;5099362;28;20043;-77
2023/08/04 06:52:30;;;;;;;12.95;9.75;;;;;;;18.92;100.00;-18536.06;5098310;28;20027;-76
2023/08/04 06:54:55;;;;;;;14.27;9.65;;;;;;;18.84;100.00;-18534.03;5101812;28;20051;-78
2023/08/04 06:57:21;;;;;;;12.18;8.82;;;;;;;18.87;100.00;-18534.84;5102078;28;20039;-79
2023/08/04 06:59:46;;;;;;;10.88;9.73;;;;;;;19.09;100.00;-18540.56;5106216;28;20047;-76
2023/08/04 07:02:11;;;;;;;11.20;8.82;;;;;;;19.16;100.00;-18542.47;5097103;28;20032;-78
2023/08/04 07:04:37;;;;;;;11.60;9.02;;;;;;;19.06;100.00;-18539.91;5101141;28;20132;-76
2023/08/04 07:07:02;;;;;;;14.80;9.40;;;;;;;18.88;100.00;-18535.13;5106213;28;20498;-78
2023/08/04 07:09:28;;;;;;;15.95;10.27;;;;;;;18.96;100.00;-18537.16;5100172;28;20036;-77
2023/08/04 07:11:53;;;;;;;17.70;10.23;;;;;;;18.97;100.00;-18537.44;5105995;28;20088;-78
2023/08/04 07:14:19;;;;;;;15.25;11.70;;;;;;;19.13;100.00;-18541.81;5106917;28;20437;-78
2023/08/04 07:16:47;;;;;;;18.92;10.55;;;;;;;19.19;100.00;-18543.16;5100626;28;20031;-76
2023/08/04 07:19:13;;;;;;;21.10;12.23;;;;;;;19.32;100.00;-18546.72;5103401;28;20039;-79
2023/08/04 07:21:38;;;;;;;15.02;9.18;;;;;;;19.44;100.00;-18549.84;5102647;28;20131;-76
2023/08/04 07:24:04;;;;;;;13.15;9.27;;;;;;;19.37;100.00;-18548.19;5106642;28;20124;-79
2023/08/04 07:26:31;;;;;;;15.32;11.70;;;;;;;19.65;100.00;-18555.56;5107642;28;20070;-76
2023/08/04 07:28:57;;;;;;;13.65;7.90;;;;;;;19.61;100.00;-18554.59;5107305;28;20109;-75
2023/08/04 07:31:22;;;;;;;12.88;7.50;;;;;;;19.85;100.00;-18560.88;5111176;28;20039;-76
2023/08/04 07:33:48;;;;;;;11.50;6.57;;;;;;;19.61;100.00;-18554.47;5109762;28;20100;-76
2023/08/04 07:36:13;;;;;;;16.13;6.90;;;;;;;19.88;100.00;-18561.69;5106930;28;20070;-79
2023/08/04 07:38:38;;;;;;;12.07;7.15;;;;;;;19.82;100.00;-18560.06;5111407;28;20055;-79
2023/08/04 07:41:04;;;;;;;8.52;6.50;;;;;;;20.02;100.00;-18565.38;5112226;28;20069;-79
2023/08/04 07:43:29;;;;;;;9.43;5.47;;;;;;;20.01;100.00;-18565.22;5111462;28;20055;-77
2023/08/04 07:45:55;;;;;;;10.43;4.70;;;;;;;20.00;100.00;-18564.97;5104464;28;20035;-81
2023/08/04 07:48:21;;;;;;;9.52;4.82;;;;;;;20.03;100.00;-18565.78;5110332;28;20043;-77
2023/08/04 07:50:48;;;;;;;9.52;5.00;;;;;;;20.03;100.00;-18565.78;5107606;28;20089;-77
2023/08/04 07:53:14;;;;;;;10.10;4.75;;;;;;;20.02;100.00;-18565.50;5101839;28;20044;-77
2023/08/04 07:55:39;;;;;;;8.25;4.43;;;;;;;20.18;100.00;-18569.59;5092086;28;20038;-79
2023/08/04 07:58:09;;;;;;;8.07;4.88;;;;;;;20.30;100.00;-18572.84;5111621;28;20047;-80
2023/08/04 08:00:35;;;;;;;7.97;4.20;;;;;;;20.38;100.00;-18575.03;5108438;28;20799;-78
2023/08/04 08:03:00;;;;;;;7.88;3.67;;;;;;;20.19;100.00;-18570.00;5106318;28;20415;-77
2023/08/04 08:05:26;;;;;;;6.75;4.13;;;;;;;20.16;100.00;-18569.19;5110112;28;20024;-79
2023/08/04 08:07:51;;;;;;;7.90;3.95;;;;;;;20.18;100.00;-18569.72;5108422;28;20063;-80
2023/08/04 08:10:17;;;;;;;9.05;3.80;;;;;;;20.16;100.00;-18569.03;5111493;28;20059;-78
2023/08/04 08:12:43;;;;;;;5.18;3.08;;;;;;;20.35;100.00;-18574.22;5091936;28;20047;-78
2023/08/04 08:15:08;;;;;;;4.53;2.22;;;;;;;20.27;100.00;-18572.03;5107434;28;20474;-77
2023/08/04 08:17:34;;;;;;;3.97;1.70;;;;;;;20.23;100.00;-18571.09;5109161;28;20095;-79
2023/08/04 08:19:59;;;;;;;3.28;1.40;;;;;;;20.11;100.00;-18567.69;5107045;28;20039;-78
2023/08/04 08:22:24;;;;;;;3.65;1.90;;;;;;;20.04;100.00;-18566.03;5109117;28;20040;-77
2023/08/04 08:24:54;;;;;;;2.33;1.35;;;;;;;19.99;100.00;-18564.56;5108284;28;20036;-79
2023/08/04 08:27:19;;;;;;;5.25;2.20;;;;;;;20.03;100.00;-18565.63;5090284;28;20036;-78
2023/08/04 08:29:45;;;;;;;5.93;1.42;;;;;;;19.92;100.00;-18562.78;5109583;28;20356;-81
2023/08/04 08:32:10;;;;;;;4.97;1.67;;;;;;;20.05;100.00;-18566.31;5091755;28;20050;-78
2023/08/04 08:34:35;;;;;;;3.33;1.90;;;;;;;20.02;100.00;-18565.50;5104740;28;20036;-77
2023/08/04 08:37:02;;;;;;;3.08;1.90;;;;;;;20.01;100.00;-18565.09;5103785;28;20032;-77
2023/08/04 08:39:28;;;;;;;4.30;2.70;;;;;;;20.13;100.00;-18568.22;5108308;27;20043;-77
2023/08/04 08:41:54;;;;;;;4.85;3.22;;;;;;;20.22;100.00;-18570.69;5107899;27;20040;-80
2023/08/04 08:44:19;;;;;;;4.88;2.47;;;;;;;20.23;100.00;-18570.94;5104846;27;20047;-79
2023/08/04 08:46:45;;;;;;;5.68;2.40;;;;;;;20.26;100.00;-18571.91;5096020;27;20069;-80
2023/08/04 08:49:11;;;;;;;6.22;2.53;;;;;;;20.46;100.00;-18577.06;5112078;27;20571;-81
2023/08/04 08:51:42;;;;;;;6.43;3.33;;;;;;;20.71;100.00;-18583.75;5104931;27;20122;-80
2023/08/04 08:54:08;;;;;;;5.40;2.65;;;;;;;20.78;100.00;-18585.66;5064360;28;20044;-79
2023/08/04 08:56:34;;;;;;;10.00;3.85;;;;;;;20.92;100.00;-18589.31;5097406;27;20055;-78
2023/08/04 08:59:01;;;;;;;4.57;2.78;;;;;;;21.07;100.00;-18593.25;5106708;27;20043;-80
2023/08/04 09:01:26;;;;;;;5.90;2.90;;;;;;;21.12;100.00;-18594.75;5107391;27;20100;-79
2023/08/04 09:03:52;;;;;;;4.82;2.83;;;;;;;21.10;100.00;-18594.09;5095087;27;20154;-79
2023/08/04 09:06:17;;;;;;;8.57;2.85;;;;;;;21.29;100.00;-18599.09;5107524;27;20043;-80
2023/08/04 09:08:43;;;;;;;6.38;3.00;;;;;;;21.25;100.00;-18598.03;5109170;27;20054;-81
2023/08/04 09:11:10;;;;;;;5.43;2.22;;;;;;;21.37;100.00;-18601.28;5106808;27;20041;-79
2023/08/04 09:13:40;;;;;;;5.53;2.65;;;;;;;21.43;100.00;-18602.78;5105411;27;20051;-79
2023/08/04 09:16:08;;;;;;;5.25;2.20;;;;;;;21.56;100.00;-18606.44;5105991;27;20048;-80
2023/08/04 09:18:37;;;;;;;4.13;1.88;;;;;;;;;;5109977;27;20427;-80
2023/08/04 09:21:08;;;;;;;4.55;2.10;;;;;;;21.79;100.00;-18612.44;5108322;27;20047;-79
2023/08/04 09:23:52;;;;;;;2.40;1.60;;;;;;;21.69;100.00;-18609.84;5107054;27;20596;-79
2023/08/04 09:26:18;;;;;;;3.42;1.63;;;;;;;21.76;100.00;-18611.75;5089170;28;20055;-80
2023/08/04 09:28:44;;;;;;;4.53;1.88;;;;;;;21.97;100.00;-18617.31;5108470;27;20047;-80
2023/08/04 09:31:11;;;;;;;3.70;1.90;;;;;;;22.17;100.00;-18622.63;5112936;27;20040;-79
2023/08/04 09:33:41;;;;;;;3.72;2.25;;;;;;;22.19;100.00;-18623.16;5110553;27;20048;-79
2023/08/04 09:36:18;;;;;;;4.32;1.90;;;;;;;22.23;100.00;-18624.13;5113475;27;20046;-80
2023/08/04 09:38:43;;;;;;;4.35;2.00;;;;;;;22.05;100.00;-18619.38;5108940;27;20052;-79
2023/08/04 09:41:14;;;;;;;5.75;1.92;;;;;;;22.05;100.00;-18619.38;5107791;27;20108;-79
2023/08/04 09:43:47;;;;;;;3.28;2.08;;;;;;;22.20;100.00;-18623.44;5105687;27;20487;-80
2023/08/04 09:46:13;;;;;;;3.33;1.52;;;;;;;22.05;100.00;-18619.50;5083175;28;20043;-81
2023/08/04 09:48:38;;;;;;;3.65;1.80;;;;;;;22.17;100.00;-18622.50;5111785;27;20035;-80
2023/08/04 09:51:08;;;;;;;4.78;1.50;;;;;;;22.52;100.00;-18631.84;5089494;28;20044;-81
2023/08/04 09:53:41;;;;;;;4.35;1.40;;;;;;;22.82;100.00;-18639.72;5109905;27;20062;-79
2023/08/04 09:56:09;;;;;;;5.03;1.70;;;;;;;22.61;100.00;-18634.31;5109190;27;20074;-79
2023/08/04 09:58:34;;;;;;;3.10;1.50;;;;;;;22.52;100.00;-18631.84;5110587;27;20043;-80
2023/08/04 10:01:01;;;;;;;2.42;1.30;;;;;;;22.57;100.00;-18633.22;5107201;28;20050;-80
2023/08/04 10:03:28;;;;;;;3.38;1.38;;;;;;;22.54;100.00;-18632.41;5108275;27;20169;-79
2023/08/04 10:05:55;;;;;;;2.80;1.30;;;;;;;22.77;100.00;-18638.38;5111384;27;20035;-80
2023/08/04 10:08:20;;;;;;;5.13;1.30;;;;;;;22.72;100.00;-18637.28;5104833;27;20044;-77
2023/08/04 10:10:46;;;;;;;4.78;1.55;;;;;;;22.79;100.00;-18638.91;5105269;27;20051;-77
2023/08/04 10:13:12;;;;;;;2.72;1.40;;;;;;;22.84;100.00;-18640.41;5104460;28;20108;-81
2023/08/04 10:15:38;;;;;;;2.08;1.23;;;;;;;22.72;100.00;-18637.28;5096018;28;20047;-80
2023/08/04 10:18:03;;;;;;;2.03;1.20;;;;;;;22.75;100.00;-18637.97;5106386;28;20044;-80
2023/08/04 10:20:34;;;;;;;3.28;1.50;;;;;;;22.87;100.00;-18641.09;5106751;28;20054;-77
2023/08/04 10:22:59;;;;;;;5.05;1.70;;;;;;;22.57;100.00;-18633.22;5104367;28;20035;-78
2023/08/04 10:25:25;;;;;;;4.20;1.90;;;;;;;22.47;100.00;-18630.50;5082845;28;20548;-77
2023/08/04 10:27:50;;;;;;;3.47;1.50;;;;;;;22.36;100.00;-18627.53;5107207;27;20075;-77
2023/08/04 10:30:16;;;;;;;2.90;1.42;;;;;;;22.40;100.00;-18628.59;5105714;27;20500;-81
2023/08/04 10:32:42;;;;;;;3.38;1.48;;;;;;;22.42;100.00;-18629.16;5106649;28;20146;-78
2023/08/04 10:35:28;;;;;;;3.50;1.48;;;;;;;22.39;100.00;-18628.34;5114659;27;20050;-78
2023/08/04 10:37:59;;;;;;;3.22;1.52;;;;;;;22.23;100.00;-18624.25;5110581;27;20407;-79
2023/08/04 10:40:30;;;;;;;2.30;1.30;;;;;;;22.46;100.00;-18630.22;5108913;28;20046;-80
2023/08/04 10:43:04;;;;;;;3.25;1.25;;;;;;;22.47;100.00;-18630.63;5104326;28;20042;-80
2023/08/04 10:45:49;;;;;;;2.58;1.58;;;;;;;22.62;100.00;-18634.56;5113927;28;20040;-79
2023/08/04 10:48:14;;;;;;;4.85;1.35;;;;;;;22.56;100.00;-18632.81;5086476;28;20623;-78
2023/08/04 10:50:40;;;;;;;2.58;1.38;;;;;;;22.80;100.00;-18639.19;5102213;28;20044;-80
2023/08/04 10:53:05;;;;;;;2.95;1.27;;;;;;;22.74;100.00;-18637.84;5107022;28;20051;-81
2023/08/04 10:55:33;;;;;;;2.97;1.10;;;;;;;22.89;100.00;-18641.78;5106452;28;20044;-81
2023/08/04 10:57:58;;;;;;;3.47;1.40;;;;;;;23.15;100.00;-18648.56;5094271;28;20044;-79
2023/08/04 11:00:23;;;;;;;3.60;1.45;;;;;;;23.23;100.00;-18650.59;5114954;27;20058;-81
2023/08/04 11:02:49;;;;;;;2.40;1.20;;;;;;;23.17;100.00;-18649.09;5106368;27;20048;-78
2023/08/04 11:05:14;;;;;;;2.92;1.40;;;;;;;23.34;100.00;-18653.56;5110640;27;20156;-79